sensor_id;sensor_type;location;lat;lon;timestamp;P1;durP1;ratioP1;P2;durP2;ratioP2
74213;SDS011;62576;55.694;37.494;2023-12-20T07:35:09;6.95;;;2.40;;
74213;SDS011;62576;55.694;37.494;2023-12-20T07:37:39;6.93;;;2.10;;
74213;SDS011;62576;55.694;37.494;2023-12-20T07:40:09;6.97;;;2.78;;
74213;SDS011;62576;55.694;37.494;2023-12-20T07:42:35;6.05;;;2.60;;
74213;SDS011;62576;55.694;37.494;2023-12-20T07:45:05;6.28;;;2.70;;
74213;SDS011;62576;55.694;37.494;2023-12-20T07:47:35;5.90;;;2.25;;
74213;SDS011;62576;55.694;37.494;2023-12-20T07:50:05;4.03;;;2.05;;
74213;SDS011;62576;55.694;37.494;2023-12-20T07:52:36;5.88;;;2.42;;
74213;SDS011;62576;55.694;37.494;2023-12-20T07:55:06;5.32;;;2.40;;
74213;SDS011;62576;55.694;37.494;2023-12-20T07:57:36;8.60;;;2.30;;
74213;SDS011;62576;55.694;37.494;2023-12-20T08:00:06;6.28;;;2.35;;
74213;SDS011;62576;55.694;37.494;2023-12-20T08:02:36;9.00;;;2.70;;
74213;SDS011;62576;55.694;37.494;2023-12-20T08:05:06;8.15;;;2.17;;
74213;SDS011;62576;55.694;37.494;2023-12-20T08:07:40;8.63;;;2.22;;
74213;SDS011;62576;55.694;37.494;2023-12-20T08:12:39;6.10;;;2.38;;
74213;SDS011;62576;55.694;37.494;2023-12-20T08:15:09;5.65;;;2.20;;
74213;SDS011;62576;55.694;37.494;2023-12-20T08:17:42;4.93;;;2.00;;
74213;SDS011;62576;55.694;37.494;2023-12-20T08:20:12;5.47;;;2.72;;
74213;SDS011;62576;55.694;37.494;2023-12-20T08:22:43;7.53;;;2.85;;
74213;SDS011;62576;55.694;37.494;2023-12-20T08:25:13;5.60;;;2.55;;
74213;SDS011;62576;55.694;37.494;2023-12-20T08:27:43;5.32;;;2.30;;
74213;SDS011;62576;55.694;37.494;2023-12-20T08:30:13;5.68;;;2.60;;
74213;SDS011;62576;55.694;37.494;2023-12-20T08:32:45;5.57;;;2.47;;
74213;SDS011;62576;55.694;37.494;2023-12-20T08:35:14;4.50;;;2.35;;
74213;SDS011;62576;55.694;37.494;2023-12-20T08:37:46;5.53;;;2.40;;
74213;SDS011;62576;55.694;37.494;2023-12-20T08:40:19;5.25;;;2.47;;
74213;SDS011;62576;55.694;37.494;2023-12-20T08:42:49;5.53;;;2.95;;
74213;SDS011;62576;55.694;37.494;2023-12-20T08:45:19;5.50;;;2.67;;
74213;SDS011;62576;55.694;37.494;2023-12-20T08:47:49;7.32;;;2.60;;
74213;SDS011;62576;55.694;37.494;2023-12-20T08:50:19;7.10;;;2.85;;
74213;SDS011;62576;55.694;37.494;2023-12-20T08:52:50;9.00;;;3.65;;
74213;SDS011;62576;55.694;37.494;2023-12-20T08:55:20;11.80;;;4.60;;
74213;SDS011;62576;55.694;37.494;2023-12-20T08:57:50;9.32;;;3.50;;
74213;SDS011;62576;55.694;37.494;2023-12-20T09:00:20;7.25;;;3.88;;
74213;SDS011;62576;55.694;37.494;2023-12-20T09:02:52;9.43;;;3.00;;
74213;SDS011;62576;55.694;37.494;2023-12-20T09:05:22;5.03;;;2.42;;
74213;SDS011;62576;55.694;37.494;2023-12-20T09:07:54;7.55;;;3.00;;
74213;SDS011;62576;55.694;37.494;2023-12-20T09:10:23;7.57;;;3.03;;
74213;SDS011;62576;55.694;37.494;2023-12-20T09:12:53;8.85;;;3.03;;
74213;SDS011;62576;55.694;37.494;2023-12-20T09:15:25;8.02;;;2.72;;
74213;SDS011;62576;55.694;37.494;2023-12-20T09:17:55;9.00;;;3.10;;
74213;SDS011;62576;55.694;37.494;2023-12-20T09:20:25;5.22;;;2.63;;
74213;SDS011;62576;55.694;37.494;2023-12-20T09:22:57;6.55;;;2.88;;
74213;SDS011;62576;55.694;37.494;2023-12-20T09:25:27;5.70;;;2.72;;
74213;SDS011;62576;55.694;37.494;2023-12-20T09:27:58;5.30;;;2.35;;
74213;SDS011;62576;55.694;37.494;2023-12-20T09:30:28;5.30;;;2.60;;
74213;SDS011;62576;55.694;37.494;2023-12-20T09:32:54;5.45;;;2.30;;
74213;SDS011;62576;55.694;37.494;2023-12-20T09:35:24;5.28;;;2.78;;
74213;SDS011;62576;55.694;37.494;2023-12-20T09:37:54;5.30;;;2.03;;
74213;SDS011;62576;55.694;37.494;2023-12-20T09:40:26;7.78;;;2.60;;
74213;SDS011;62576;55.694;37.494;2023-12-20T09:42:56;6.43;;;3.10;;
74213;SDS011;62576;55.694;37.494;2023-12-20T09:45:26;6.38;;;2.67;;
74213;SDS011;62576;55.694;37.494;2023-12-20T09:47:56;7.97;;;3.33;;
74213;SDS011;62576;55.694;37.494;2023-12-20T09:50:27;9.02;;;3.50;;
74213;SDS011;62576;55.694;37.494;2023-12-20T09:52:59;6.03;;;3.00;;
74213;SDS011;62576;55.694;37.494;2023-12-20T09:55:32;8.93;;;3.30;;
74213;SDS011;62576;55.694;37.494;2023-12-20T09:58:02;7.53;;;3.45;;
74213;SDS011;62576;55.694;37.494;2023-12-20T10:00:31;7.13;;;2.97;;
74213;SDS011;62576;55.694;37.494;2023-12-20T10:03:03;6.63;;;2.67;;
74213;SDS011;62576;55.694;37.494;2023-12-20T10:05:33;6.70;;;2.53;;
74213;SDS011;62576;55.694;37.494;2023-12-20T10:08:04;6.97;;;2.38;;
74213;SDS011;62576;55.694;37.494;2023-12-20T10:10:35;4.78;;;2.45;;
74213;SDS011;62576;55.694;37.494;2023-12-20T10:13:07;4.97;;;2.20;;
74213;SDS011;62576;55.694;37.494;2023-12-20T10:15:37;6.20;;;2.22;;
74213;SDS011;62576;55.694;37.494;2023-12-20T10:18:07;6.20;;;2.63;;
74213;SDS011;62576;55.694;37.494;2023-12-20T10:20:34;10.10;;;2.63;;
74213;SDS011;62576;55.694;37.494;2023-12-20T10:23:04;6.20;;;2.75;;
74213;SDS011;62576;55.694;37.494;2023-12-20T10:25:35;7.78;;;2.22;;
74213;SDS011;62576;55.694;37.494;2023-12-20T10:28:09;5.38;;;2.30;;
74213;SDS011;62576;55.694;37.494;2023-12-20T10:30:39;7.10;;;2.45;;
74213;SDS011;62576;55.694;37.494;2023-12-20T10:33:06;3.22;;;1.90;;
74213;SDS011;62576;55.694;37.494;2023-12-20T10:35:37;4.32;;;2.28;;
74213;SDS011;62576;55.694;37.494;2023-12-20T10:38:07;4.75;;;2.08;;
74213;SDS011;62576;55.694;37.494;2023-12-20T10:40:39;5.00;;;2.38;;
74213;SDS011;62576;55.694;37.494;2023-12-20T10:43:08;3.75;;;2.15;;
74213;SDS011;62576;55.694;37.494;2023-12-20T10:45:39;4.18;;;2.22;;
74213;SDS011;62576;55.694;37.494;2023-12-20T10:48:11;4.88;;;2.50;;
74213;SDS011;62576;55.694;37.494;2023-12-20T10:50:41;3.70;;;2.05;;
74213;SDS011;62576;55.694;37.494;2023-12-20T10:53:11;5.45;;;2.45;;
74213;SDS011;62576;55.694;37.494;2023-12-20T10:55:44;4.72;;;2.28;;
74213;SDS011;62576;55.694;37.494;2023-12-20T10:58:15;4.22;;;2.08;;
74213;SDS011;62576;55.694;37.494;2023-12-20T11:00:45;6.32;;;2.40;;
74213;SDS011;62576;55.694;37.494;2023-12-20T11:03:16;4.30;;;1.92;;
74213;SDS011;62576;55.694;37.494;2023-12-20T11:05:48;6.15;;;2.30;;
74213;SDS011;62576;55.694;37.494;2023-12-20T11:08:19;4.93;;;2.17;;
74213;SDS011;62576;55.694;37.494;2023-12-20T11:10:55;7.20;;;2.60;;
74213;SDS011;62576;55.694;37.494;2023-12-20T11:13:30;4.57;;;2.20;;
74213;SDS011;62576;55.694;37.494;2023-12-20T11:16:03;3.45;;;2.17;;
74213;SDS011;62576;55.694;37.494;2023-12-20T11:18:34;7.30;;;3.08;;
74213;SDS011;62576;55.694;37.494;2023-12-20T11:21:04;5.80;;;2.10;;
74213;SDS011;62576;55.694;37.494;2023-12-20T11:23:34;7.97;;;2.20;;
74213;SDS011;62576;55.694;37.494;2023-12-20T11:26:08;4.68;;;2.15;;
74213;SDS011;62576;55.694;37.494;2023-12-20T11:28:38;6.65;;;2.30;;
74213;SDS011;62576;55.694;37.494;2023-12-20T11:31:08;3.58;;;1.90;;
74213;SDS011;62576;55.694;37.494;2023-12-20T11:33:36;4.07;;;2.03;;
74213;SDS011;62576;55.694;37.494;2023-12-20T11:36:12;4.25;;;2.10;;
74213;SDS011;62576;55.694;37.494;2023-12-20T11:41:29;5.07;;;2.25;;
74213;SDS011;62576;55.694;37.494;2023-12-20T11:43:59;3.65;;;1.77;;
74213;SDS011;62576;55.694;37.494;2023-12-20T11:46:31;5.07;;;2.03;;
74213;SDS011;62576;55.694;37.494;2023-12-20T11:49:01;7.78;;;2.22;;
74213;SDS011;62576;55.694;37.494;2023-12-20T11:51:31;4.93;;;2.28;;
74213;SDS011;62576;55.694;37.494;2023-12-20T11:54:01;5.25;;;2.40;;
74213;SDS011;62576;55.694;37.494;2023-12-20T11:56:32;4.82;;;2.38;;
74213;SDS011;62576;55.694;37.494;2023-12-20T11:59:02;6.13;;;2.60;;
74213;SDS011;62576;55.694;37.494;2023-12-20T12:01:32;4.68;;;2.17;;
74213;SDS011;62576;55.694;37.494;2023-12-20T12:04:03;4.70;;;2.30;;
74213;SDS011;62576;55.694;37.494;2023-12-20T12:06:33;5.43;;;2.33;;
74213;SDS011;62576;55.694;37.494;2023-12-20T12:09:03;8.18;;;2.55;;
74213;SDS011;62576;55.694;37.494;2023-12-20T12:11:35;5.10;;;2.33;;
74213;SDS011;62576;55.694;37.494;2023-12-20T12:14:06;4.28;;;2.30;;
74213;SDS011;62576;55.694;37.494;2023-12-20T12:16:36;4.85;;;2.30;;
74213;SDS011;62576;55.694;37.494;2023-12-20T12:19:03;5.15;;;1.90;;
74213;SDS011;62576;55.694;37.494;2023-12-20T12:21:33;6.63;;;2.25;;
74213;SDS011;62576;55.694;37.494;2023-12-20T12:24:06;5.00;;;2.58;;
74213;SDS011;62576;55.694;37.494;2023-12-20T12:26:38;5.10;;;2.08;;
74213;SDS011;62576;55.694;37.494;2023-12-20T12:29:08;4.65;;;2.00;;
74213;SDS011;62576;55.694;37.494;2023-12-20T12:34:11;5.65;;;2.60;;
74213;SDS011;62576;55.694;37.494;2023-12-20T12:36:41;5.35;;;1.92;;
74213;SDS011;62576;55.694;37.494;2023-12-20T12:39:11;4.72;;;2.08;;
74213;SDS011;62576;55.694;37.494;2023-12-20T12:41:45;7.63;;;2.10;;
74213;SDS011;62576;55.694;37.494;2023-12-20T12:44:14;3.08;;;1.70;;
74213;SDS011;62576;55.694;37.494;2023-12-20T12:46:44;5.80;;;2.08;;
74213;SDS011;62576;55.694;37.494;2023-12-20T12:49:14;4.53;;;2.00;;
74213;SDS011;62576;55.694;37.494;2023-12-20T12:51:44;5.82;;;2.22;;
74213;SDS011;62576;55.694;37.494;2023-12-20T12:54:14;4.70;;;1.80;;
74213;SDS011;62576;55.694;37.494;2023-12-20T12:56:46;4.47;;;2.22;;
74213;SDS011;62576;55.694;37.494;2023-12-20T12:59:17;5.15;;;2.22;;
74213;SDS011;62576;55.694;37.494;2023-12-20T13:01:47;5.38;;;2.47;;
74213;SDS011;62576;55.694;37.494;2023-12-20T13:04:17;6.18;;;2.10;;
74213;SDS011;62576;55.694;37.494;2023-12-20T13:06:47;7.07;;;2.78;;
74213;SDS011;62576;55.694;37.494;2023-12-20T13:09:16;6.20;;;2.03;;
74213;SDS011;62576;55.694;37.494;2023-12-20T13:11:48;6.85;;;2.22;;
74213;SDS011;62576;55.694;37.494;2023-12-20T13:14:18;9.15;;;3.17;;
74213;SDS011;62576;55.694;37.494;2023-12-20T13:16:48;5.63;;;2.40;;
74213;SDS011;62576;55.694;37.494;2023-12-20T13:19:17;4.00;;;1.67;;
74213;SDS011;62576;55.694;37.494;2023-12-20T13:21:47;4.53;;;2.05;;
74213;SDS011;62576;55.694;37.494;2023-12-20T13:24:17;3.67;;;1.60;;
74213;SDS011;62576;55.694;37.494;2023-12-20T13:26:48;4.03;;;1.70;;
74213;SDS011;62576;55.694;37.494;2023-12-20T13:29:18;2.00;;;1.38;;
74213;SDS011;62576;55.694;37.494;2023-12-20T13:31:48;3.75;;;1.90;;
74213;SDS011;62576;55.694;37.494;2023-12-20T13:34:18;3.15;;;1.50;;
74213;SDS011;62576;55.694;37.494;2023-12-20T13:36:48;3.45;;;1.73;;
74213;SDS011;62576;55.694;37.494;2023-12-20T13:39:18;3.22;;;1.80;;
74213;SDS011;62576;55.694;37.494;2023-12-20T13:41:51;5.25;;;2.03;;
74213;SDS011;62576;55.694;37.494;2023-12-20T13:44:21;3.08;;;1.90;;
74213;SDS011;62576;55.694;37.494;2023-12-20T13:46:51;5.18;;;2.38;;
74213;SDS011;62576;55.694;37.494;2023-12-20T13:49:22;4.15;;;2.00;;
74213;SDS011;62576;55.694;37.494;2023-12-20T13:51:54;3.90;;;1.88;;
74213;SDS011;62576;55.694;37.494;2023-12-20T13:54:25;5.95;;;1.90;;
74213;SDS011;62576;55.694;37.494;2023-12-20T13:56:56;6.18;;;2.00;;
74213;SDS011;62576;55.694;37.494;2023-12-20T13:59:26;5.88;;;2.13;;
74213;SDS011;62576;55.694;37.494;2023-12-20T14:01:56;5.53;;;1.95;;
74213;SDS011;62576;55.694;37.494;2023-12-20T14:04:26;3.20;;;1.95;;
74213;SDS011;62576;55.694;37.494;2023-12-20T14:06:56;4.45;;;1.98;;
74213;SDS011;62576;55.694;37.494;2023-12-20T14:09:26;3.90;;;1.95;;
74213;SDS011;62576;55.694;37.494;2023-12-20T14:11:57;3.03;;;1.80;;
74213;SDS011;62576;55.694;37.494;2023-12-20T14:14:27;2.75;;;1.45;;
74213;SDS011;62576;55.694;37.494;2023-12-20T14:16:58;4.95;;;2.00;;
74213;SDS011;62576;55.694;37.494;2023-12-20T14:19:28;3.47;;;1.73;;
74213;SDS011;62576;55.694;37.494;2023-12-20T14:21:58;4.32;;;2.15;;
74213;SDS011;62576;55.694;37.494;2023-12-20T14:24:29;5.57;;;1.80;;
74213;SDS011;62576;55.694;37.494;2023-12-20T14:27:00;3.30;;;1.60;;
74213;SDS011;62576;55.694;37.494;2023-12-20T14:29:30;3.17;;;1.58;;
74213;SDS011;62576;55.694;37.494;2023-12-20T14:32:00;3.85;;;1.77;;
74213;SDS011;62576;55.694;37.494;2023-12-20T14:34:31;6.25;;;2.03;;
74213;SDS011;62576;55.694;37.494;2023-12-20T14:37:01;6.20;;;2.40;;
74213;SDS011;62576;55.694;37.494;2023-12-20T14:39:31;4.00;;;1.90;;
74213;SDS011;62576;55.694;37.494;2023-12-20T14:42:03;5.10;;;2.08;;
74213;SDS011;62576;55.694;37.494;2023-12-20T14:44:33;6.00;;;2.55;;
74213;SDS011;62576;55.694;37.494;2023-12-20T14:47:03;5.97;;;2.20;;
74213;SDS011;62576;55.694;37.494;2023-12-20T14:49:33;5.43;;;2.40;;
74213;SDS011;62576;55.694;37.494;2023-12-20T14:52:03;5.72;;;2.20;;
74213;SDS011;62576;55.694;37.494;2023-12-20T14:54:33;4.82;;;2.58;;
74213;SDS011;62576;55.694;37.494;2023-12-20T14:57:04;6.63;;;3.03;;
74213;SDS011;62576;55.694;37.494;2023-12-20T15:02:05;6.32;;;2.20;;
74213;SDS011;62576;55.694;37.494;2023-12-20T15:04:35;7.05;;;2.30;;
74213;SDS011;62576;55.694;37.494;2023-12-20T15:07:05;6.82;;;2.80;;
74213;SDS011;62576;55.694;37.494;2023-12-20T15:09:35;4.68;;;2.10;;
74213;SDS011;62576;55.694;37.494;2023-12-20T15:12:06;4.85;;;2.45;;
74213;SDS011;62576;55.694;37.494;2023-12-20T15:14:37;5.70;;;2.17;;
74213;SDS011;62576;55.694;37.494;2023-12-20T15:17:07;6.22;;;2.70;;
74213;SDS011;62576;55.694;37.494;2023-12-20T15:19:37;6.65;;;2.53;;
74213;SDS011;62576;55.694;37.494;2023-12-20T15:22:06;4.82;;;2.60;;
74213;SDS011;62576;55.694;37.494;2023-12-20T15:24:36;5.93;;;2.30;;
74213;SDS011;62576;55.694;37.494;2023-12-20T15:27:10;6.30;;;2.17;;
74213;SDS011;62576;55.694;37.494;2023-12-20T15:29:39;6.85;;;2.40;;
74213;SDS011;62576;55.694;37.494;2023-12-20T15:32:06;4.13;;;2.08;;
74213;SDS011;62576;55.694;37.494;2023-12-20T15:34:36;6.13;;;3.22;;
74213;SDS011;62576;55.694;37.494;2023-12-20T15:37:06;6.53;;;3.08;;
74213;SDS011;62576;55.694;37.494;2023-12-20T15:39:36;5.47;;;2.80;;
74213;SDS011;62576;55.694;37.494;2023-12-20T15:42:06;6.68;;;2.35;;
74213;SDS011;62576;55.694;37.494;2023-12-20T15:44:37;8.13;;;2.50;;
74213;SDS011;62576;55.694;37.494;2023-12-20T15:47:07;4.68;;;2.40;;
74213;SDS011;62576;55.694;37.494;2023-12-20T15:49:37;5.40;;;2.80;;
74213;SDS011;62576;55.694;37.494;2023-12-20T15:52:07;5.15;;;2.28;;
74213;SDS011;62576;55.694;37.494;2023-12-20T15:54:37;5.93;;;2.42;;
74213;SDS011;62576;55.694;37.494;2023-12-20T15:57:07;6.63;;;2.55;;
74213;SDS011;62576;55.694;37.494;2023-12-20T15:59:39;6.10;;;2.42;;
74213;SDS011;62576;55.694;37.494;2023-12-20T16:02:09;4.20;;;2.20;;
74213;SDS011;62576;55.694;37.494;2023-12-20T16:04:38;5.70;;;3.03;;
74213;SDS011;62576;55.694;37.494;2023-12-20T16:07:09;5.05;;;2.42;;
74213;SDS011;62576;55.694;37.494;2023-12-20T16:09:38;5.25;;;2.80;;
74213;SDS011;62576;55.694;37.494;2023-12-20T16:12:08;6.72;;;2.30;;
74213;SDS011;62576;55.694;37.494;2023-12-20T16:14:39;4.13;;;2.30;;
74213;SDS011;62576;55.694;37.494;2023-12-20T16:17:09;5.13;;;2.35;;
74213;SDS011;62576;55.694;37.494;2023-12-20T16:19:39;5.20;;;2.70;;
74213;SDS011;62576;55.694;37.494;2023-12-20T16:22:08;6.00;;;2.70;;
74213;SDS011;62576;55.694;37.494;2023-12-20T16:24:39;4.32;;;2.15;;
74213;SDS011;62576;55.694;37.494;2023-12-20T16:27:09;4.80;;;2.30;;
74213;SDS011;62576;55.694;37.494;2023-12-20T16:29:40;4.88;;;2.35;;
74213;SDS011;62576;55.694;37.494;2023-12-20T16:32:10;5.80;;;2.35;;
74213;SDS011;62576;55.694;37.494;2023-12-20T16:34:40;5.93;;;2.28;;
74213;SDS011;62576;55.694;37.494;2023-12-20T16:37:11;4.50;;;2.60;;
74213;SDS011;62576;55.694;37.494;2023-12-20T16:39:41;5.38;;;2.53;;
74213;SDS011;62576;55.694;37.494;2023-12-20T16:42:11;6.20;;;3.20;;
74213;SDS011;62576;55.694;37.494;2023-12-20T16:44:43;6.45;;;2.90;;
74213;SDS011;62576;55.694;37.494;2023-12-20T16:47:12;5.63;;;2.80;;
74213;SDS011;62576;55.694;37.494;2023-12-20T16:49:44;7.30;;;2.67;;
74213;SDS011;62576;55.694;37.494;2023-12-20T16:52:14;6.40;;;2.58;;
74213;SDS011;62576;55.694;37.494;2023-12-20T16:54:44;6.57;;;2.72;;
74213;SDS011;62576;55.694;37.494;2023-12-20T16:57:14;5.38;;;2.70;;
74213;SDS011;62576;55.694;37.494;2023-12-20T16:59:48;8.45;;;2.90;;
74213;SDS011;62576;55.694;37.494;2023-12-20T17:02:17;5.13;;;2.38;;
74213;SDS011;62576;55.694;37.494;2023-12-20T17:04:47;5.07;;;2.40;;
74213;SDS011;62576;55.694;37.494;2023-12-20T17:07:18;5.38;;;2.55;;
74213;SDS011;62576;55.694;37.494;2023-12-20T17:09:47;5.30;;;2.40;;
74213;SDS011;62576;55.694;37.494;2023-12-20T17:12:18;6.43;;;2.92;;
74213;SDS011;62576;55.694;37.494;2023-12-20T17:14:49;11.00;;;3.22;;
74213;SDS011;62576;55.694;37.494;2023-12-20T17:17:19;7.63;;;2.78;;
74213;SDS011;62576;55.694;37.494;2023-12-20T17:19:49;5.30;;;2.10;;
74213;SDS011;62576;55.694;37.494;2023-12-20T17:22:19;6.70;;;2.40;;
74213;SDS011;62576;55.694;37.494;2023-12-20T17:24:49;6.07;;;2.17;;
74213;SDS011;62576;55.694;37.494;2023-12-20T17:27:19;6.43;;;1.90;;
74213;SDS011;62576;55.694;37.494;2023-12-20T17:29:50;4.40;;;1.90;;
74213;SDS011;62576;55.694;37.494;2023-12-20T17:32:20;5.47;;;2.20;;
74213;SDS011;62576;55.694;37.494;2023-12-20T17:34:50;4.03;;;1.98;;
74213;SDS011;62576;55.694;37.494;2023-12-20T17:37:19;7.85;;;2.10;;
74213;SDS011;62576;55.694;37.494;2023-12-20T17:39:49;6.47;;;2.25;;
74213;SDS011;62576;55.694;37.494;2023-12-20T17:42:19;4.03;;;1.90;;
74213;SDS011;62576;55.694;37.494;2023-12-20T17:44:51;3.90;;;2.00;;
74213;SDS011;62576;55.694;37.494;2023-12-20T17:47:20;3.45;;;1.70;;
74213;SDS011;62576;55.694;37.494;2023-12-20T17:49:50;6.00;;;2.08;;
74213;SDS011;62576;55.694;37.494;2023-12-20T17:52:20;7.40;;;2.10;;
74213;SDS011;62576;55.694;37.494;2023-12-20T17:54:50;4.57;;;2.50;;
74213;SDS011;62576;55.694;37.494;2023-12-20T17:57:20;4.60;;;2.03;;
74213;SDS011;62576;55.694;37.494;2023-12-20T17:59:53;3.10;;;1.50;;
74213;SDS011;62576;55.694;37.494;2023-12-20T18:02:22;4.70;;;1.77;;
74213;SDS011;62576;55.694;37.494;2023-12-20T18:04:49;3.50;;;1.90;;
74213;SDS011;62576;55.694;37.494;2023-12-20T18:07:19;5.75;;;1.90;;
74213;SDS011;62576;55.694;37.494;2023-12-20T18:09:49;4.55;;;2.38;;
74213;SDS011;62576;55.694;37.494;2023-12-20T18:12:18;5.03;;;2.10;;
74213;SDS011;62576;55.694;37.494;2023-12-20T18:14:48;5.88;;;2.00;;
74213;SDS011;62576;55.694;37.494;2023-12-20T18:17:22;4.18;;;2.15;;
74213;SDS011;62576;55.694;37.494;2023-12-20T18:19:52;5.82;;;2.00;;
74213;SDS011;62576;55.694;37.494;2023-12-20T18:22:22;5.15;;;2.13;;
74213;SDS011;62576;55.694;37.494;2023-12-20T18:24:51;5.88;;;2.53;;
74213;SDS011;62576;55.694;37.494;2023-12-20T18:27:23;7.03;;;2.13;;
74213;SDS011;62576;55.694;37.494;2023-12-20T18:29:54;4.88;;;2.20;;
74213;SDS011;62576;55.694;37.494;2023-12-20T18:32:25;5.70;;;2.10;;
74213;SDS011;62576;55.694;37.494;2023-12-20T18:34:55;8.32;;;2.90;;
74213;SDS011;62576;55.694;37.494;2023-12-20T18:37:25;9.15;;;2.97;;
74213;SDS011;62576;55.694;37.494;2023-12-20T18:39:52;7.82;;;2.67;;
74213;SDS011;62576;55.694;37.494;2023-12-20T18:42:22;8.82;;;2.95;;
74213;SDS011;62576;55.694;37.494;2023-12-20T18:44:51;5.20;;;2.33;;
74213;SDS011;62576;55.694;37.494;2023-12-20T18:47:21;6.93;;;2.30;;
74213;SDS011;62576;55.694;37.494;2023-12-20T18:49:53;7.30;;;2.30;;
74213;SDS011;62576;55.694;37.494;2023-12-20T18:52:22;5.05;;;1.98;;
74213;SDS011;62576;55.694;37.494;2023-12-20T18:54:52;5.25;;;2.10;;
74213;SDS011;62576;55.694;37.494;2023-12-20T18:57:22;4.82;;;2.22;;
74213;SDS011;62576;55.694;37.494;2023-12-20T18:59:52;3.35;;;1.80;;
74213;SDS011;62576;55.694;37.494;2023-12-20T19:02:22;5.85;;;1.90;;
74213;SDS011;62576;55.694;37.494;2023-12-20T19:04:53;5.13;;;2.30;;
74213;SDS011;62576;55.694;37.494;2023-12-20T19:07:23;6.60;;;2.60;;
74213;SDS011;62576;55.694;37.494;2023-12-20T19:09:52;6.85;;;2.70;;
74213;SDS011;62576;55.694;37.494;2023-12-20T19:12:22;5.28;;;2.30;;
74213;SDS011;62576;55.694;37.494;2023-12-20T19:14:52;5.85;;;2.17;;
74213;SDS011;62576;55.694;37.494;2023-12-20T19:17:23;4.80;;;2.42;;
74213;SDS011;62576;55.694;37.494;2023-12-20T19:19:55;5.13;;;2.20;;
74213;SDS011;62576;55.694;37.494;2023-12-20T19:22:25;5.70;;;2.17;;
74213;SDS011;62576;55.694;37.494;2023-12-20T19:24:59;4.38;;;1.90;;
74213;SDS011;62576;55.694;37.494;2023-12-20T19:27:33;6.55;;;2.20;;
74213;SDS011;62576;55.694;37.494;2023-12-20T19:30:03;6.57;;;2.35;;
74213;SDS011;62576;55.694;37.494;2023-12-20T19:32:33;4.47;;;2.10;;
74213;SDS011;62576;55.694;37.494;2023-12-20T19:35:05;5.13;;;2.20;;
74213;SDS011;62576;55.694;37.494;2023-12-20T19:37:35;4.10;;;1.83;;
74213;SDS011;62576;55.694;37.494;2023-12-20T19:40:05;6.85;;;1.92;;
74213;SDS011;62576;55.694;37.494;2023-12-20T19:42:35;3.97;;;1.88;;
74213;SDS011;62576;55.694;37.494;2023-12-20T19:45:06;6.40;;;2.38;;
74213;SDS011;62576;55.694;37.494;2023-12-20T19:47:37;5.88;;;2.30;;
74213;SDS011;62576;55.694;37.494;2023-12-20T19:50:09;5.32;;;2.20;;
74213;SDS011;62576;55.694;37.494;2023-12-20T19:52:39;5.07;;;2.17;;
74213;SDS011;62576;55.694;37.494;2023-12-20T19:55:09;6.95;;;2.30;;
74213;SDS011;62576;55.694;37.494;2023-12-20T19:57:39;6.07;;;2.33;;
74213;SDS011;62576;55.694;37.494;2023-12-20T20:00:10;5.57;;;2.60;;
74213;SDS011;62576;55.694;37.494;2023-12-20T20:02:40;5.38;;;2.25;;
74213;SDS011;62576;55.694;37.494;2023-12-20T20:05:12;6.13;;;2.42;;
74213;SDS011;62576;55.694;37.494;2023-12-20T20:07:41;5.88;;;2.30;;
74213;SDS011;62576;55.694;37.494;2023-12-20T20:10:11;5.63;;;2.42;;
74213;SDS011;62576;55.694;37.494;2023-12-20T20:12:41;4.97;;;2.20;;
74213;SDS011;62576;55.694;37.494;2023-12-20T20:15:11;5.28;;;2.20;;
74213;SDS011;62576;55.694;37.494;2023-12-20T20:17:41;5.65;;;2.38;;
74213;SDS011;62576;55.694;37.494;2023-12-20T20:20:12;6.20;;;2.38;;
74213;SDS011;62576;55.694;37.494;2023-12-20T20:22:42;6.18;;;2.30;;
74213;SDS011;62576;55.694;37.494;2023-12-20T20:25:12;6.43;;;2.45;;
74213;SDS011;62576;55.694;37.494;2023-12-20T20:27:42;4.82;;;2.45;;
74213;SDS011;62576;55.694;37.494;2023-12-20T20:30:12;6.22;;;2.53;;
74213;SDS011;62576;55.694;37.494;2023-12-20T20:32:38;5.25;;;2.45;;
74213;SDS011;62576;55.694;37.494;2023-12-20T20:35:08;4.93;;;2.30;;
74213;SDS011;62576;55.694;37.494;2023-12-20T20:37:40;6.45;;;2.38;;
74213;SDS011;62576;55.694;37.494;2023-12-20T20:40:10;4.78;;;2.28;;
74213;SDS011;62576;55.694;37.494;2023-12-20T20:42:42;5.70;;;2.00;;
74213;SDS011;62576;55.694;37.494;2023-12-20T20:45:13;3.80;;;2.03;;
74213;SDS011;62576;55.694;37.494;2023-12-20T20:47:43;6.13;;;2.10;;
74213;SDS011;62576;55.694;37.494;2023-12-20T20:50:13;5.75;;;2.05;;
74213;SDS011;62576;55.694;37.494;2023-12-20T20:52:44;6.22;;;2.20;;
74213;SDS011;62576;55.694;37.494;2023-12-20T20:55:15;5.68;;;1.92;;
74213;SDS011;62576;55.694;37.494;2023-12-20T20:57:45;9.57;;;2.45;;
74213;SDS011;62576;55.694;37.494;2023-12-20T21:00:18;3.58;;;2.00;;
74213;SDS011;62576;55.694;37.494;2023-12-20T21:02:48;4.50;;;2.00;;
74213;SDS011;62576;55.694;37.494;2023-12-20T21:05:18;5.45;;;2.10;;
74213;SDS011;62576;55.694;37.494;2023-12-20T21:07:49;3.67;;;1.90;;
74213;SDS011;62576;55.694;37.494;2023-12-20T21:10:19;6.95;;;2.35;;
74213;SDS011;62576;55.694;37.494;2023-12-20T21:12:49;6.40;;;2.30;;
74213;SDS011;62576;55.694;37.494;2023-12-20T21:15:19;6.00;;;2.60;;
74213;SDS011;62576;55.694;37.494;2023-12-20T21:17:49;7.38;;;2.00;;
74213;SDS011;62576;55.694;37.494;2023-12-20T21:20:18;4.65;;;2.20;;
74213;SDS011;62576;55.694;37.494;2023-12-20T21:22:50;4.00;;;1.80;;
74213;SDS011;62576;55.694;37.494;2023-12-20T21:25:19;6.15;;;2.10;;
74213;SDS011;62576;55.694;37.494;2023-12-20T21:27:50;4.35;;;2.05;;
74213;SDS011;62576;55.694;37.494;2023-12-20T21:30:20;5.35;;;2.25;;
74213;SDS011;62576;55.694;37.494;2023-12-20T21:32:47;4.38;;;2.17;;
74213;SDS011;62576;55.694;37.494;2023-12-20T21:35:17;6.45;;;2.50;;
74213;SDS011;62576;55.694;37.494;2023-12-20T21:37:47;6.70;;;2.50;;
74213;SDS011;62576;55.694;37.494;2023-12-20T21:40:18;6.25;;;2.70;;
74213;SDS011;62576;55.694;37.494;2023-12-20T21:42:48;7.53;;;2.90;;
74213;SDS011;62576;55.694;37.494;2023-12-20T21:45:18;9.95;;;2.88;;
74213;SDS011;62576;55.694;37.494;2023-12-20T21:47:48;6.55;;;2.95;;
74213;SDS011;62576;55.694;37.494;2023-12-20T21:50:19;7.40;;;3.00;;
74213;SDS011;62576;55.694;37.494;2023-12-20T21:52:49;7.60;;;3.30;;
74213;SDS011;62576;55.694;37.494;2023-12-20T21:55:21;8.40;;;3.03;;
74213;SDS011;62576;55.694;37.494;2023-12-20T21:57:51;8.23;;;3.20;;
74213;SDS011;62576;55.694;37.494;2023-12-20T22:00:21;7.80;;;3.45;;
74213;SDS011;62576;55.694;37.494;2023-12-20T22:02:51;7.20;;;3.50;;
74213;SDS011;62576;55.694;37.494;2023-12-20T22:05:21;8.90;;;4.25;;
74213;SDS011;62576;55.694;37.494;2023-12-20T22:07:50;8.40;;;4.20;;
74213;SDS011;62576;55.694;37.494;2023-12-20T22:10:22;9.40;;;4.35;;
74213;SDS011;62576;55.694;37.494;2023-12-20T22:12:51;8.52;;;4.10;;
74213;SDS011;62576;55.694;37.494;2023-12-20T22:15:21;9.27;;;4.72;;
74213;SDS011;62576;55.694;37.494;2023-12-20T22:17:51;14.52;;;4.82;;
74213;SDS011;62576;55.694;37.494;2023-12-20T22:20:21;13.55;;;5.38;;
74213;SDS011;62576;55.694;37.494;2023-12-20T22:22:51;12.10;;;5.38;;
74213;SDS011;62576;55.694;37.494;2023-12-20T22:25:22;11.68;;;5.10;;
74213;SDS011;62576;55.694;37.494;2023-12-20T22:27:52;11.27;;;5.25;;
74213;SDS011;62576;55.694;37.494;2023-12-20T22:30:22;13.25;;;5.40;;
74213;SDS011;62576;55.694;37.494;2023-12-20T22:32:49;14.30;;;5.43;;
74213;SDS011;62576;55.694;37.494;2023-12-20T22:35:18;12.85;;;4.90;;